Time;durP1;ratioP1;P1;durP2;ratioP2;P2;SDS_P1;SDS_P2;PMS_P1;PMS_P2;Temp;Humidity;BMP_temperature;BMP_pressure;BME280_temperature;BME280_humidity;BME280_pressure;Samples;Min_cycle;Max_cycle;Signal;HPM_P1;HPM_P2
2021/04/24 00:00:24;;;;;;;15.82;5.18;;;7.60;48.80;;;;;;4989716;28;20069;-71
2021/04/24 00:02:51;;;;;;;12.93;4.75;;;7.50;48.90;;;;;;4999214;28;20038;-71
2021/04/24 00:05:39;;;;;;;15.88;5.97;;;7.60;49.30;;;;;;5005832;28;20077;-71
2021/04/24 00:08:08;;;;;;;13.30;4.22;;;7.50;51.10;;;;;;5002936;28;20045;-71
2021/04/24 00:10:37;;;;;;;18.00;5.43;;;7.50;52.00;;;;;;5007095;28;20042;-71
2021/04/24 00:13:05;;;;;;;14.02;4.70;;;7.40;52.20;;;;;;5001789;28;20362;-71
2021/04/24 00:15:32;;;;;;;13.20;4.43;;;7.30;52.90;;;;;;5003594;28;20069;-71
2021/04/24 00:17:58;;;;;;;16.42;4.93;;;7.40;53.20;;;;;;5003746;28;20046;-71
2021/04/24 00:20:24;;;;;;;25.05;4.88;;;7.30;54.00;;;;;;5002131;28;20139;-71
2021/04/24 00:22:51;;;;;;;10.80;5.00;;;7.30;53.70;;;;;;4997036;28;20065;-71
2021/04/24 00:25:17;;;;;;;13.73;4.70;;;7.30;54.60;;;;;;5001886;28;20450;-71
2021/04/24 00:27:43;;;;;;;15.50;4.97;;;7.20;55.40;;;;;;5009380;28;20029;-71
2021/04/24 00:30:12;;;;;;;11.48;4.80;;;7.20;56.20;;;;;;5009316;28;20029;-71
2021/04/24 00:32:38;;;;;;;17.38;4.90;;;7.20;56.60;;;;;;5004668;28;20033;-71
2021/04/24 00:35:05;;;;;;;14.07;4.55;;;7.10;56.80;;;;;;5007518;28;20138;-71
2021/04/24 00:37:31;;;;;;;15.75;4.50;;;7.20;58.00;;;;;;5006335;28;20124;-71
2021/04/24 00:39:56;;;;;;;11.40;5.13;;;7.10;58.00;;;;;;5003742;28;20124;-71
2021/04/24 00:42:22;;;;;;;16.17;5.95;;;7.10;58.50;;;;;;5003457;28;20026;-71
2021/04/24 00:44:49;;;;;;;13.50;4.70;;;7.10;58.90;;;;;;5009152;28;20038;-73
2021/04/24 00:47:17;;;;;;;14.25;5.13;;;7.10;59.10;;;;;;4999377;28;22323;-73
2021/04/24 00:49:43;;;;;;;15.10;5.35;;;7.10;60.00;;;;;;5002612;28;20040;-71
2021/04/24 00:52:08;;;;;;;16.63;5.57;;;7.00;59.50;;;;;;5007711;28;20042;-71
2021/04/24 00:54:34;;;;;;;13.00;4.13;;;7.00;61.10;;;;;;5002767;28;20049;-71
2021/04/24 00:57:00;;;;;;;12.05;4.72;;;7.00;60.60;;;;;;5006031;28;20095;-71
2021/04/24 00:59:26;;;;;;;13.88;4.95;;;6.90;60.40;;;;;;5000933;28;20458;-71
2021/04/24 01:01:52;;;;;;;12.52;4.47;;;6.90;61.20;;;;;;5005759;28;20076;-74
2021/04/24 01:04:18;;;;;;;14.35;4.88;;;6.90;61.50;;;;;;5003733;28;20743;-71
2021/04/24 01:06:44;;;;;;;16.65;4.22;;;6.80;62.20;;;;;;5002912;28;20038;-73
2021/04/24 01:09:09;;;;;;;13.88;4.45;;;6.80;62.30;;;;;;5004297;28;20084;-71
2021/04/24 01:11:35;;;;;;;18.10;4.80;;;6.70;62.50;;;;;;5003672;28;20056;-71
2021/04/24 01:14:01;;;;;;;14.90;4.50;;;6.70;63.60;;;;;;5001728;28;20126;-71
2021/04/24 01:16:26;;;;;;;10.77;4.28;;;6.70;64.20;;;;;;5004608;28;20120;-71
2021/04/24 01:18:52;;;;;;;10.40;4.78;;;6.60;63.80;;;;;;5006287;28;20058;-72
2021/04/24 01:21:21;;;;;;;16.63;4.75;;;6.60;64.10;;;;;;5002926;28;20041;-71
2021/04/24 01:23:46;;;;;;;14.90;5.45;;;6.60;64.10;;;;;;5001351;28;20045;-72
2021/04/24 01:26:12;;;;;;;11.25;5.35;;;6.60;64.80;;;;;;5000531;28;20057;-73
2021/04/24 01:28:37;;;;;;;13.88;5.30;;;6.60;66.00;;;;;;5002896;28;20054;-73
2021/04/24 01:31:03;;;;;;;20.90;5.53;;;6.60;66.20;;;;;;5000736;28;20048;-70
2021/04/24 01:33:29;;;;;;;16.52;4.88;;;6.50;66.80;;;;;;5004492;28;20034;-72
2021/04/24 01:35:55;;;;;;;21.00;4.72;;;6.50;66.20;;;;;;5001697;28;20041;-72
2021/04/24 01:38:20;;;;;;;12.48;4.97;;;6.50;67.10;;;;;;5003789;28;20052;-72
2021/04/24 01:40:46;;;;;;;10.40;4.68;;;6.50;67.10;;;;;;5006044;28;20069;-71
2021/04/24 01:43:13;;;;;;;12.93;4.55;;;6.40;67.00;;;;;;5003679;28;20091;-71
2021/04/24 01:45:38;;;;;;;13.57;4.60;;;6.40;67.30;;;;;;5005153;28;20042;-71
2021/04/24 01:48:06;;;;;;;19.67;4.82;;;6.40;67.10;;;;;;4998678;28;20061;-73
2021/04/24 01:50:43;;;;;;;10.95;4.38;;;6.30;67.50;;;;;;5005022;28;20502;-73
2021/04/24 01:53:12;;;;;;;16.65;4.93;;;6.30;68.40;;;;;;5002991;28;20494;-73
2021/04/24 01:55:40;;;;;;;17.58;5.50;;;6.30;68.20;;;;;;5004540;28;20156;-71
2021/04/24 01:58:08;;;;;;;14.30;4.55;;;6.20;68.20;;;;;;5003508;28;20050;-71
2021/04/24 02:00:36;;;;;;;21.25;5.15;;;6.20;67.60;;;;;;4999546;28;20041;-71
2021/04/24 02:03:04;;;;;;;13.93;4.70;;;6.20;67.90;;;;;;5010720;28;20155;-72
2021/04/24 02:05:30;;;;;;;17.40;5.32;;;6.20;67.70;;;;;;5002729;28;20060;-71
2021/04/24 02:07:57;;;;;;;14.80;5.53;;;6.10;68.10;;;;;;5006357;28;20033;-71
2021/04/24 02:10:24;;;;;;;11.13;5.20;;;6.10;68.20;;;;;;5002777;28;20525;-71
2021/04/24 02:12:50;;;;;;;21.50;5.18;;;6.10;67.90;;;;;;4999810;28;20096;-71
2021/04/24 02:15:16;;;;;;;17.42;5.03;;;6.00;67.40;;;;;;5007893;28;20045;-71
2021/04/24 02:17:42;;;;;;;8.65;4.97;;;5.90;67.50;;;;;;4998383;28;20478;-71
2021/04/24 02:20:08;;;;;;;16.52;5.50;;;5.90;67.80;;;;;;5002791;28;20439;-71
2021/04/24 02:22:33;;;;;;;19.83;5.30;;;5.90;67.70;;;;;;5001477;28;20037;-71
2021/04/24 02:25:03;;;;;;;15.73;4.93;;;5.90;68.10;;;;;;5006755;28;20104;-71
2021/04/24 02:27:28;;;;;;;22.23;6.13;;;5.90;68.40;;;;;;5001975;28;20046;-71
2021/04/24 02:29:55;;;;;;;17.17;5.45;;;5.80;68.30;;;;;;5004296;28;20049;-71
2021/04/24 02:32:23;;;;;;;24.85;5.93;;;5.80;68.20;;;;;;4997855;28;20144;-71
2021/04/24 02:34:49;;;;;;;13.18;5.50;;;5.90;68.50;;;;;;4996387;28;20538;-71
2021/04/24 02:37:16;;;;;;;16.23;5.57;;;5.80;69.40;;;;;;4999182;28;20179;-71
2021/04/24 02:39:45;;;;;;;20.50;6.60;;;5.80;69.70;;;;;;5002151;28;20053;-71
2021/04/24 02:42:15;;;;;;;14.77;4.75;;;5.80;70.40;;;;;;4997315;28;20081;-73
2021/04/24 02:44:41;;;;;;;12.95;5.68;;;5.70;70.30;;;;;;5001225;28;20054;-71
2021/04/24 02:47:07;;;;;;;19.63;7.03;;;5.70;70.20;;;;;;5000136;28;20118;-71
2021/04/24 02:49:33;;;;;;;10.38;4.80;;;5.70;70.50;;;;;;4992683;28;20624;-73
2021/04/24 02:51:59;;;;;;;14.13;4.97;;;5.70;71.30;;;;;;5001410;28;20056;-71
2021/04/24 02:54:25;;;;;;;27.30;6.13;;;5.60;72.00;;;;;;5002481;28;20045;-73
2021/04/24 02:56:51;;;;;;;18.83;7.30;;;5.60;72.00;;;;;;5006409;28;20042;-72
2021/04/24 02:59:18;;;;;;;15.55;5.90;;;5.60;72.90;;;;;;4987793;28;20042;-73
2021/04/24 03:01:45;;;;;;;13.90;5.05;;;5.60;73.00;;;;;;5001932;28;20050;-71
2021/04/24 03:04:11;;;;;;;18.05;5.43;;;5.50;73.40;;;;;;5001382;28;20056;-71
2021/04/24 03:06:37;;;;;;;20.10;5.07;;;5.50;75.00;;;;;;5000132;28;20053;-71
2021/04/24 03:09:03;;;;;;;16.50;5.30;;;5.50;74.60;;;;;;5005622;28;20033;-71
2021/04/24 03:11:30;;;;;;;14.63;5.95;;;5.50;74.70;;;;;;5003374;28;20042;-71
2021/04/24 03:13:56;;;;;;;19.40;5.47;;;5.50;75.40;;;;;;5001840;28;20508;-71
2021/04/24 03:16:22;;;;;;;21.60;6.13;;;5.40;76.20;;;;;;4997838;28;20125;-71
2021/04/24 03:18:47;;;;;;;16.33;5.55;;;5.50;75.00;;;;;;5004521;28;20069;-71
2021/04/24 03:21:13;;;;;;;14.95;5.63;;;5.40;75.00;;;;;;5001292;28;20574;-71
2021/04/24 03:23:38;;;;;;;17.88;5.47;;;5.30;75.20;;;;;;5003254;28;20049;-71
2021/04/24 03:26:04;;;;;;;16.10;5.78;;;5.30;75.10;;;;;;4999083;28;20041;-71
2021/04/24 03:28:30;;;;;;;9.77;4.60;;;5.30;75.70;;;;;;4998270;28;20034;-71
2021/04/24 03:30:55;;;;;;;18.33;5.88;;;5.30;75.50;;;;;;5011952;28;20050;-71
2021/04/24 03:33:21;;;;;;;13.85;5.82;;;5.20;75.50;;;;;;4998664;28;21013;-71
2021/04/24 03:35:46;;;;;;;13.93;5.88;;;5.20;75.70;;;;;;4999469;28;20044;-72
2021/04/24 03:38:12;;;;;;;13.80;5.68;;;5.20;76.30;;;;;;5000542;28;20065;-71
2021/04/24 03:40:38;;;;;;;14.35;5.25;;;5.20;77.80;;;;;;5004126;28;20034;-72
2021/04/24 03:43:04;;;;;;;18.77;6.15;;;5.20;78.10;;;;;;4983309;28;20382;-71
2021/04/24 03:45:30;;;;;;;16.65;5.47;;;5.20;78.30;;;;;;4999028;28;20057;-73
2021/04/24 03:47:56;;;;;;;11.95;5.47;;;5.20;79.00;;;;;;4999858;28;20536;-72
2021/04/24 03:50:24;;;;;;;13.80;5.38;;;5.10;79.30;;;;;;4998735;28;20125;-73
2021/04/24 03:52:51;;;;;;;18.20;5.68;;;5.10;79.50;;;;;;5004347;28;20041;-71
2021/04/24 03:55:17;;;;;;;14.13;5.78;;;5.10;79.60;;;;;;5003274;28;20176;-71
2021/04/24 03:57:44;;;;;;;16.05;6.30;;;5.10;79.90;;;;;;5001087;28;20046;-73
2021/04/24 04:00:12;;;;;;;20.10;6.22;;;5.10;79.80;;;;;;4992542;28;20659;-71
2021/04/24 04:03:04;;;;;;;15.48;5.70;;;5.00;79.60;;;;;;5002390;28;20046;-71
2021/04/24 04:05:39;;;;;;;16.17;6.35;;;5.00;80.00;;;;;;5000899;28;20034;-72
2021/04/24 04:08:07;;;;;;;8.35;5.15;;;5.00;79.70;;;;;;5011954;28;20140;-71
2021/04/24 04:10:34;;;;;;;17.73;6.03;;;4.90;80.60;;;;;;5003770;28;20038;-71
2021/04/24 04:13:00;;;;;;;15.50;5.63;;;4.90;80.60;;;;;;5002675;28;20042;-73
2021/04/24 04:15:27;;;;;;;14.48;5.50;;;4.90;81.30;;;;;;5002657;28;20038;-71
2021/04/24 04:18:05;;;;;;;17.88;6.20;;;4.90;82.10;;;;;;4998891;28;20048;-71
2021/04/24 04:20:33;;;;;;;15.68;5.22;;;4.90;82.60;;;;;;5004227;28;20046;-71
2021/04/24 04:22:59;;;;;;;22.80;6.25;;;4.80;82.40;;;;;;4999939;28;20053;-72
2021/04/24 04:25:26;;;;;;;11.35;5.68;;;4.80;82.50;;;;;;5004411;28;20025;-71
2021/04/24 04:27:52;;;;;;;15.77;5.80;;;4.80;83.30;;;;;;5004482;28;20486;-71
2021/04/24 04:30:19;;;;;;;17.00;6.32;;;4.80;83.40;;;;;;5005386;28;20048;-71
2021/04/24 04:32:45;;;;;;;12.98;5.60;;;4.80;84.00;;;;;;5009829;28;20038;-71
2021/04/24 04:35:12;;;;;;;16.13;6.07;;;4.90;84.20;;;;;;4997908;28;20057;-71
2021/04/24 04:37:37;;;;;;;16.42;5.90;;;4.90;84.30;;;;;;5006504;28;20030;-71
2021/04/24 04:40:09;;;;;;;15.90;5.80;;;4.90;84.10;;;;;;5003025;28;20100;-71
2021/04/24 04:42:35;;;;;;;17.85;6.70;;;4.90;84.20;;;;;;5005317;28;20050;-72
2021/04/24 04:45:00;;;;;;;13.90;6.22;;;4.90;83.80;;;;;;5003406;28;20164;-71
2021/04/24 04:47:26;;;;;;;15.18;6.50;;;4.90;83.80;;;;;;5000416;28;20124;-71
2021/04/24 04:49:52;;;;;;;19.08;6.85;;;5.00;84.70;;;;;;4988231;28;20038;-71
2021/04/24 04:52:18;;;;;;;24.98;7.03;;;4.90;83.90;;;;;;5002582;28;20052;-72
2021/04/24 04:54:43;;;;;;;22.75;5.68;;;5.00;84.20;;;;;;5004476;28;20030;-72
2021/04/24 04:57:09;;;;;;;15.02;7.07;;;4.90;83.90;;;;;;5003331;28;20073;-72
2021/04/24 04:59:35;;;;;;;15.70;6.05;;;4.90;83.90;;;;;;5003840;28;20061;-73
2021/04/24 05:02:00;;;;;;;16.77;5.95;;;5.00;83.70;;;;;;5009460;28;20033;-72
2021/04/24 05:04:26;;;;;;;23.80;6.40;;;5.10;83.80;;;;;;4999533;28;20041;-72
2021/04/24 05:06:51;;;;;;;15.95;6.38;;;5.10;84.00;;;;;;4985670;28;20043;-72
2021/04/24 05:09:22;;;;;;;21.77;6.80;;;5.10;84.20;;;;;;5003356;28;20064;-72
2021/04/24 05:11:51;;;;;;;19.75;6.93;;;5.10;83.10;;;;;;5007661;28;20205;-72
2021/04/24 05:14:17;;;;;;;21.80;6.43;;;5.10;83.10;;;;;;4999974;28;20034;-72
2021/04/24 05:16:43;;;;;;;21.27;6.93;;;5.20;83.20;;;;;;4982729;28;20541;-72
2021/04/24 05:19:09;;;;;;;19.75;5.60;;;5.20;83.70;;;;;;5002846;28;20042;-72
2021/04/24 05:21:35;;;;;;;21.95;6.75;;;5.30;83.50;;;;;;5003865;28;20096;-72
2021/04/24 05:24:02;;;;;;;20.60;6.93;;;5.30;83.50;;;;;;5005648;28;20029;-72
2021/04/24 05:26:28;;;;;;;16.95;6.68;;;5.40;83.50;;;;;;5003000;28;20038;-72
2021/04/24 05:28:53;;;;;;;27.92;6.35;;;5.50;83.30;;;;;;5011086;28;20060;-72
2021/04/24 05:31:19;;;;;;;20.08;6.85;;;5.50;83.20;;;;;;5006235;28;20041;-72
2021/04/24 05:33:45;;;;;;;17.17;7.32;;;5.60;83.80;;;;;;4998211;28;20120;-72
2021/04/24 05:36:13;;;;;;;17.38;6.50;;;5.70;83.10;;;;;;4994364;28;20034;-72
2021/04/24 05:38:38;;;;;;;20.75;6.97;;;5.80;82.30;;;;;;5000996;28;20046;-72
2021/04/24 05:41:06;;;;;;;27.15;7.38;;;5.90;82.80;;;;;;5005034;28;20034;-72
2021/04/24 05:43:31;;;;;;;21.10;7.70;;;6.10;82.50;;;;;;5005499;28;20514;-72
2021/04/24 05:45:57;;;;;;;15.00;6.85;;;6.20;81.40;;;;;;5004468;28;20186;-72
2021/04/24 05:48:23;;;;;;;22.95;7.20;;;6.30;80.60;;;;;;5004461;28;20458;-72
2021/04/24 05:50:48;;;;;;;20.55;6.65;;;6.50;79.20;;;;;;5002737;28;20065;-72
2021/04/24 05:53:14;;;;;;;21.40;6.30;;;6.70;78.40;;;;;;5001994;28;20069;-72
2021/04/24 05:55:39;;;;;;;22.95;6.38;;;6.80;77.10;;;;;;4987638;28;20041;-72
2021/04/24 05:58:05;;;;;;;23.05;7.10;;;7.00;75.40;;;;;;4986469;28;20038;-72
2021/04/24 06:00:31;;;;;;;21.48;7.00;;;7.10;73.70;;;;;;5001068;28;20502;-72
2021/04/24 06:02:56;;;;;;;16.75;6.97;;;7.30;72.20;;;;;;4999397;28;20046;-72
2021/04/24 06:05:22;;;;;;;19.77;7.05;;;7.40;71.10;;;;;;5003659;28;20033;-72
2021/04/24 06:07:48;;;;;;;16.50;6.00;;;7.60;70.20;;;;;;5000943;28;20049;-72
2021/04/24 06:10:17;;;;;;;21.10;7.75;;;7.60;68.50;;;;;;4997292;28;20034;-72
2021/04/24 06:12:48;;;;;;;24.42;7.47;;;7.80;67.60;;;;;;5002685;28;20057;-72
2021/04/24 06:15:15;;;;;;;29.30;6.82;;;8.00;67.40;;;;;;5002471;28;20033;-72
2021/04/24 06:17:42;;;;;;;27.88;7.80;;;8.10;66.10;;;;;;5007076;28;20092;-72
2021/04/24 06:20:10;;;;;;;24.65;7.57;;;8.20;64.50;;;;;;5001023;28;20510;-72
2021/04/24 06:22:36;;;;;;;23.30;7.95;;;8.40;64.00;;;;;;4991664;28;20061;-72
2021/04/24 06:25:04;;;;;;;32.47;8.40;;;8.60;63.70;;;;;;5002497;28;20030;-72
2021/04/24 06:27:30;;;;;;;26.90;7.25;;;8.70;61.70;;;;;;5003703;28;20238;-72
2021/04/24 06:29:56;;;;;;;19.17;7.38;;;8.80;61.40;;;;;;5005273;28;20555;-71
2021/04/24 06:32:22;;;;;;;30.33;9.57;;;8.90;60.90;;;;;;5000955;28;20059;-71
2021/04/24 06:34:47;;;;;;;20.02;7.00;;;9.10;60.50;;;;;;4993613;28;20034;-73
2021/04/24 06:37:13;;;;;;;23.70;8.10;;;9.10;60.10;;;;;;4996883;28;20042;-71
2021/04/24 06:39:38;;;;;;;23.45;7.80;;;9.20;60.10;;;;;;5002628;28;20048;-71
2021/04/24 06:42:04;;;;;;;26.85;7.88;;;9.40;59.60;;;;;;5005034;28;20037;-71
2021/04/24 06:44:30;;;;;;;27.60;8.40;;;9.50;59.50;;;;;;5003515;28;20046;-72
2021/04/24 06:46:55;;;;;;;20.30;8.02;;;9.60;58.20;;;;;;5003387;28;20446;-71
2021/04/24 06:49:21;;;;;;;29.17;7.68;;;9.80;57.60;;;;;;5000242;28;20030;-73
2021/04/24 06:51:47;;;;;;;30.88;8.73;;;10.20;53.70;;;;;;5004428;28;20121;-71
2021/04/24 06:54:12;;;;;;;20.30;8.00;;;10.90;52.00;;;;;;4995829;28;20034;-73
2021/04/24 06:56:38;;;;;;;30.48;9.50;;;11.40;48.40;;;;;;4990339;28;20049;-73
2021/04/24 06:59:04;;;;;;;40.08;9.02;;;11.50;45.40;;;;;;4998130;28;20041;-73
2021/04/24 07:01:30;;;;;;;22.95;7.97;;;11.80;44.80;;;;;;4992698;28;20042;-71
2021/04/24 07:03:56;;;;;;;26.88;8.27;;;12.30;42.00;;;;;;5001330;28;20099;-72
2021/04/24 07:06:21;;;;;;;17.00;7.35;;;12.40;39.90;;;;;;4996256;28;20041;-72
2021/04/24 07:08:47;;;;;;;35.58;8.25;;;12.30;38.50;;;;;;4987967;28;20026;-72
2021/04/24 07:11:12;;;;;;;30.63;8.30;;;12.40;38.20;;;;;;5000672;28;20515;-72
2021/04/24 07:13:38;;;;;;;23.83;7.88;;;12.10;37.70;;;;;;5003901;28;20048;-71
2021/04/24 07:16:10;;;;;;;25.55;8.63;;;12.40;37.70;;;;;;5005763;28;20324;-71
2021/04/24 07:18:37;;;;;;;23.30;8.13;;;12.40;36.60;;;;;;5001579;28;20522;-71
2021/04/24 07:21:04;;;;;;;16.70;7.97;;;12.20;34.40;;;;;;5005957;28;20069;-73
2021/04/24 07:23:30;;;;;;;26.98;8.57;;;12.70;34.90;;;;;;4987350;28;20037;-73
2021/04/24 07:25:56;;;;;;;26.30;8.55;;;12.90;34.50;;;;;;5010738;28;20034;-73
2021/04/24 07:28:22;;;;;;;27.02;8.32;;;13.20;32.70;;;;;;5000768;28;20038;-73
2021/04/24 07:30:48;;;;;;;20.55;8.45;;;13.50;31.90;;;;;;5001716;28;20037;-72
2021/04/24 07:33:13;;;;;;;17.38;7.63;;;13.90;30.40;;;;;;5003247;28;20061;-72
2021/04/24 07:35:39;;;;;;;19.75;8.88;;;14.30;29.10;;;;;;5003628;28;20034;-71
2021/04/24 07:38:05;;;;;;;21.38;9.13;;;14.40;28.50;;;;;;5002630;28;20037;-71
2021/04/24 07:40:30;;;;;;;26.45;8.60;;;14.40;28.00;;;;;;5001965;28;20038;-71
2021/04/24 07:42:56;;;;;;;31.25;8.32;;;14.50;27.40;;;;;;5005191;28;20049;-71
2021/04/24 07:45:21;;;;;;;20.20;7.82;;;14.60;28.00;;;;;;4998831;28;20178;-72
2021/04/24 07:47:48;;;;;;;16.92;7.72;;;14.70;27.40;;;;;;4999779;28;20037;-73
2021/04/24 07:50:17;;;;;;;19.38;7.97;;;14.70;26.90;;;;;;5000211;28;20041;-71
2021/04/24 07:52:43;;;;;;;22.88;8.65;;;15.10;26.90;;;;;;4999820;28;20041;-73
2021/04/24 07:55:09;;;;;;;23.20;7.93;;;14.80;26.20;;;;;;4979110;28;20038;-73
2021/04/24 07:57:34;;;;;;;20.83;9.43;;;14.80;25.90;;;;;;4998086;28;20030;-71
2021/04/24 08:00:00;;;;;;;21.45;7.78;;;14.80;25.60;;;;;;4991627;28;20470;-75
2021/04/24 08:02:25;;;;;;;16.75;7.63;;;14.90;25.60;;;;;;4996467;28;20041;-74
2021/04/24 08:04:51;;;;;;;16.73;7.15;;;15.20;26.20;;;;;;4996333;28;20034;-73
2021/04/24 08:07:17;;;;;;;20.23;7.88;;;15.20;25.30;;;;;;4997607;28;20072;-73
2021/04/24 08:09:43;;;;;;;18.48;7.50;;;15.60;25.40;;;;;;5001127;28;20061;-73
2021/04/24 08:12:08;;;;;;;19.33;7.03;;;15.40;24.40;;;;;;5003007;28;20033;-73
2021/04/24 08:14:34;;;;;;;20.95;7.88;;;15.40;24.40;;;;;;5001394;28;20044;-74
2021/04/24 08:17:00;;;;;;;17.38;7.20;;;15.30;23.90;;;;;;5003670;28;20105;-71
2021/04/24 08:19:26;;;;;;;17.27;8.60;;;15.40;24.90;;;;;;5003472;28;20034;-71
2021/04/24 08:21:59;;;;;;;19.23;7.70;;;15.20;23.60;;;;;;4999819;28;20041;-71
2021/04/24 08:24:25;;;;;;;15.05;7.75;;;15.50;23.70;;;;;;5002693;28;20085;-71
2021/04/24 08:26:51;;;;;;;16.45;7.72;;;15.60;24.00;;;;;;5000774;28;20043;-71
2021/04/24 08:29:17;;;;;;;20.90;7.15;;;15.80;22.90;;;;;;4996010;28;20038;-71
2021/04/24 08:31:43;;;;;;;26.20;8.75;;;16.00;23.30;;;;;;4997495;28;20113;-71
2021/04/24 08:34:09;;;;;;;16.63;7.75;;;16.10;22.60;;;;;;4993534;28;20034;-71
2021/04/24 08:36:35;;;;;;;20.63;8.63;;;16.10;21.90;;;;;;4990872;28;20088;-71
2021/04/24 08:39:01;;;;;;;17.00;8.02;;;16.30;21.00;;;;;;4995167;28;20041;-71
2021/04/24 08:41:27;;;;;;;16.50;7.32;;;16.80;21.00;;;;;;4994055;28;20200;-71
2021/04/24 08:43:56;;;;;;;21.92;7.75;;;17.10;19.70;;;;;;4994772;28;20034;-71
2021/04/24 08:46:23;;;;;;;25.35;7.88;;;17.10;17.90;;;;;;4989675;28;20030;-71
2021/04/24 08:48:50;;;;;;;25.30;7.60;;;17.20;19.40;;;;;;4998044;28;20037;-71
2021/04/24 08:51:20;;;;;;;18.40;7.28;;;17.60;19.90;;;;;;4975113;28;20034;-72
2021/04/24 08:53:46;;;;;;;17.92;7.28;;;17.80;18.40;;;;;;4983542;28;20033;-72
2021/04/24 08:56:13;;;;;;;24.15;8.10;;;18.20;16.70;;;;;;4991277;28;20041;-72
2021/04/24 08:58:39;;;;;;;22.42;8.13;;;18.90;17.00;;;;;;4994396;28;20054;-72
2021/04/24 09:01:05;;;;;;;17.23;8.10;;;19.20;17.70;;;;;;4976987;28;20038;-72
2021/04/24 09:03:30;;;;;;;16.83;6.88;;;19.10;15.40;;;;;;4994002;28;20056;-72
2021/04/24 09:05:56;;;;;;;27.33;7.72;;;19.70;15.50;;;;;;4986078;28;20101;-72
2021/04/24 09:08:25;;;;;;;16.13;6.85;;;19.90;13.30;;;;;;4993546;28;20542;-72
2021/04/24 09:10:54;;;;;;;14.07;7.07;;;19.90;14.50;;;;;;4995236;28;20042;-72
2021/04/24 09:13:22;;;;;;;16.80;8.77;;;20.30;11.90;;;;;;4995075;28;20529;-73
2021/04/24 09:15:49;;;;;;;17.30;7.50;;;20.70;12.30;;;;;;4994447;28;20038;-73
2021/04/24 09:18:16;;;;;;;12.63;7.10;;;21.40;13.40;;;;;;4995945;28;20418;-73
2021/04/24 09:20:59;;;;;;;19.73;7.88;;;21.80;11.40;;;;;;4994247;28;20123;-74
2021/04/24 09:23:37;;;;;;;22.50;7.30;;;23.10;10.50;;;;;;4994997;28;20414;-73
2021/04/24 09:26:05;;;;;;;22.50;6.97;;;23.50;9.50;;;;;;4993850;28;20285;-73
2021/04/24 09:28:32;;;;;;;18.80;7.13;;;23.70;9.20;;;;;;4992620;28;20049;-73
2021/04/24 09:31:12;;;;;;;14.93;7.30;;;23.80;8.40;;;;;;4993241;28;20038;-72
2021/04/24 09:33:38;;;;;;;14.43;7.20;;;23.10;8.80;;;;;;4992150;28;20117;-72
2021/04/24 09:36:07;;;;;;;17.95;7.78;;;24.30;9.00;;;;;;4993077;28;20072;-73
2021/04/24 09:38:38;;;;;;;16.23;7.82;;;23.80;7.40;;;;;;4991773;28;20570;-73
2021/04/24 09:41:13;;;;;;;16.30;8.85;;;24.00;7.70;;;;;;4997012;28;20065;-73
2021/04/24 09:44:05;;;;;;;17.77;7.63;;;24.80;6.40;;;;;;5003993;28;20100;-73
2021/04/24 09:46:54;;;;;;;14.27;7.95;;;25.00;6.50;;;;;;4996115;28;20030;-73
2021/04/24 09:49:24;;;;;;;13.50;7.40;;;25.00;5.20;;;;;;4997310;28;20043;-73
2021/04/24 09:51:51;;;;;;;18.65;7.90;;;24.60;6.10;;;;;;4993741;28;20529;-72
2021/04/24 09:54:18;;;;;;;15.68;8.25;;;24.60;5.50;;;;;;4991262;28;20085;-73
2021/04/24 09:56:58;;;;;;;15.95;7.30;;;24.90;5.70;;;;;;4993745;28;20026;-73
2021/04/24 09:59:23;;;;;;;16.15;7.40;;;24.90;5.60;;;;;;4991622;28;20043;-73
2021/04/24 10:02:04;;;;;;;20.42;8.18;;;25.30;5.30;;;;;;4990107;28;20056;-73
2021/04/24 10:04:30;;;;;;;16.90;8.25;;;24.50;4.20;;;;;;4993807;28;20042;-73
2021/04/24 10:06:56;;;;;;;14.10;7.93;;;25.40;5.20;;;;;;4992171;28;20430;-74
2021/04/24 10:09:27;;;;;;;21.92;9.55;;;25.10;4.40;;;;;;4991112;28;20543;-74
2021/04/24 10:12:10;;;;;;;14.23;7.88;;;26.40;4.20;;;;;;4991925;28;20038;-73
2021/04/24 10:14:43;;;;;;;23.02;8.27;;;24.80;4.20;;;;;;4989549;28;20096;-73
2021/04/24 10:17:17;;;;;;;15.90;7.63;;;25.00;4.10;;;;;;4992681;28;20041;-73
2021/04/24 10:19:43;;;;;;;63.83;30.77;;;25.10;4.00;;;;;;4993393;28;20060;-72
2021/04/24 10:22:12;;;;;;;23.20;9.85;;;26.50;4.20;;;;;;4993161;28;20151;-72
2021/04/24 10:24:39;;;;;;;16.70;8.38;;;26.60;4.90;;;;;;4991042;28;20141;-72
2021/04/24 10:27:05;;;;;;;19.02;10.02;;;25.80;4.10;;;;;;4994021;28;20040;-72
2021/04/24 10:29:31;;;;;;;21.20;8.48;;;26.30;4.50;;;;;;4996205;28;20100;-72
2021/04/24 10:31:57;;;;;;;24.08;7.55;;;26.70;4.80;;;;;;4973361;28;20042;-72
2021/04/24 10:34:23;;;;;;;21.58;8.88;;;27.30;4.00;;;;;;4993163;28;20041;-72
2021/04/24 10:36:50;;;;;;;18.02;8.90;;;26.40;3.10;;;;;;4991954;28;20041;-72
2021/04/24 10:39:31;;;;;;;21.75;9.23;;;26.30;4.70;;;;;;4991844;28;20100;-72
2021/04/24 10:42:10;;;;;;;17.38;7.78;;;26.90;3.90;;;;;;4995110;28;20033;-73
2021/04/24 10:45:00;;;;;;;19.85;8.13;;;27.10;3.40;;;;;;4992772;28;20549;-73
2021/04/24 10:47:41;;;;;;;18.60;8.73;;;27.80;3.10;;;;;;4988686;28;20061;-73
2021/04/24 10:50:09;;;;;;;15.80;7.60;;;27.10;3.20;;;;;;4993228;28;20049;-72
2021/04/24 10:52:35;;;;;;;19.13;8.82;;;26.00;2.80;;;;;;4994587;28;20626;-72
2021/04/24 10:55:13;;;;;;;17.35;8.35;;;26.30;4.20;;;;;;4997859;28;20026;-73
2021/04/24 10:57:39;;;;;;;21.38;9.38;;;27.00;3.80;;;;;;4983612;28;20132;-73
2021/04/24 11:00:29;;;;;;;19.88;8.18;;;26.90;2.80;;;;;;4996757;28;20120;-73
2021/04/24 11:02:56;;;;;;;20.27;9.10;;;26.70;2.90;;;;;;5002122;28;20034;-73
2021/04/24 11:05:28;;;;;;;20.77;7.95;;;23.50;3.70;;;;;;5004834;28;20056;-73
2021/04/24 11:08:14;;;;;;;14.80;8.27;;;23.90;5.60;;;;;;5000429;28;20038;-73
2021/04/24 11:10:58;;;;;;;21.80;8.20;;;24.70;3.70;;;;;;5005902;28;20050;-73
2021/04/24 11:13:26;;;;;;;;;;;24.90;4.40;;;;;;5004888;28;20042;-72
2021/04/24 11:15:52;;;;;;;21.30;8.27;;;24.60;4.20;;;;;;5003629;28;19928;-73
2021/04/24 11:18:19;;;;;;;12.00;7.35;;;25.20;4.70;;;;;;5005802;28;20126;-73
2021/04/24 11:20:48;;;;;;;17.92;8.23;;;26.60;4.10;;;;;;5001542;28;20040;-72
2021/04/24 11:23:32;;;;;;;16.00;8.55;;;26.40;3.00;;;;;;5005081;28;20038;-72
2021/04/24 11:26:09;;;;;;;17.52;7.70;;;27.00;2.60;;;;;;5004501;28;20045;-72
2021/04/24 11:28:54;;;;;;;14.13;8.00;;;25.90;3.70;;;;;;5003807;28;20034;-74
2021/04/24 11:31:42;;;;;;;19.17;8.75;;;26.70;2.90;;;;;;5002302;28;20031;-73
2021/04/24 11:34:27;;;;;;;18.10;8.23;;;27.50;2.90;;;;;;5001572;28;20081;-74
2021/04/24 11:37:13;;;;;;;;;;;26.90;2.00;;;;;;5006150;28;20108;-74
2021/04/24 11:40:14;;;;;;;20.75;9.65;;;25.90;1.90;;;;;;4992571;28;20005;-73
2021/04/24 11:42:57;;;;;;;15.70;8.63;;;25.90;3.00;;;;;;5002338;28;20041;-73
2021/04/24 11:45:54;;;;;;;17.92;8.18;;;26.20;2.70;;;;;;5001607;28;20065;-71
2021/04/24 11:48:46;;;;;;;19.90;8.18;;;26.00;3.60;;;;;;4996126;28;20103;-72
2021/04/24 11:51:27;;;;;;;19.02;8.27;;;27.20;3.00;;;;;;5000071;28;20030;-72
2021/04/24 11:53:53;;;;;;;18.17;8.10;;;26.10;2.90;;;;;;5011117;28;20042;-72
2021/04/24 11:56:19;;;;;;;20.67;8.18;;;27.00;3.30;;;;;;5016110;28;20045;-72
2021/04/24 11:58:45;;;;;;;18.92;8.00;;;26.90;2.60;;;;;;5003555;28;20602;-72
2021/04/24 12:01:22;;;;;;;15.43;8.10;;;25.40;2.40;;;;;;5001743;28;20506;-74
2021/04/24 12:03:48;;;;;;;23.75;9.25;;;26.30;3.00;;;;;;5004846;28;20069;-72
2021/04/24 12:06:14;;;;;;;17.60;7.85;;;25.80;2.40;;;;;;5003804;28;20034;-74
2021/04/24 12:08:40;;;;;;;17.25;9.40;;;26.30;2.50;;;;;;5001130;28;20510;-73
2021/04/24 12:11:10;;;;;;;23.60;8.70;;;26.30;2.40;;;;;;4998594;28;20045;-72
2021/04/24 12:13:36;;;;;;;15.38;8.88;;;25.70;3.10;;;;;;5002831;28;20038;-73
2021/04/24 12:16:01;;;;;;;15.18;8.00;;;25.00;3.10;;;;;;5002340;28;20095;-73
2021/04/24 12:18:30;;;;;;;16.45;7.75;;;25.90;3.10;;;;;;5003400;28;20495;-73
2021/04/24 12:20:57;;;;;;;16.95;8.18;;;25.70;1.80;;;;;;5002081;28;20503;-74
2021/04/24 12:23:23;;;;;;;20.88;8.35;;;25.60;1.40;;;;;;5000759;28;20050;-73
2021/04/24 12:25:48;;;;;;;20.10;8.82;;;25.40;2.90;;;;;;4986231;28;20046;-74
2021/04/24 12:28:15;;;;;;;14.18;8.20;;;26.50;2.70;;;;;;4994686;28;20059;-72
2021/04/24 12:30:46;;;;;;;12.93;7.32;;;27.00;1.40;;;;;;4997001;28;20034;-74
2021/04/24 12:33:17;;;;;;;18.02;9.05;;;27.10;1.60;;;;;;5002306;28;20038;-74
2021/04/24 12:35:51;;;;;;;16.70;9.57;;;27.50;1.60;;;;;;5004860;28;20026;-74
2021/04/24 12:38:20;;;;;;;19.27;7.78;;;27.10;1.00;;;;;;5001842;28;20088;-74
2021/04/24 12:40:51;;;;;;;16.13;8.27;;;26.50;1.70;;;;;;5000259;28;20077;-74
2021/04/24 12:43:46;;;;;;;15.05;7.70;;;26.50;1.00;;;;;;5004261;28;20031;-72
2021/04/24 12:46:11;;;;;;;14.30;7.95;;;26.00;2.10;;;;;;4989325;28;20026;-73
2021/04/24 12:48:47;;;;;;;15.02;8.13;;;25.30;1.10;;;;;;5002422;28;20052;-73
2021/04/24 12:51:15;;;;;;;20.67;8.02;;;26.30;1.70;;;;;;5003316;28;20402;-72